sensor_id;sensor_type;location;lat;lon;timestamp;P1;durP1;ratioP1;P2;durP2;ratioP2
28343;SDS011;15597;50.914;6.638;2023-11-19T00:02:07;1.45;;;0.45;;
28343;SDS011;15597;50.914;6.638;2023-11-19T00:04:36;1.45;;;0.70;;
28343;SDS011;15597;50.914;6.638;2023-11-19T00:07:04;2.05;;;0.65;;
28343;SDS011;15597;50.914;6.638;2023-11-19T00:09:32;2.60;;;0.70;;
28343;SDS011;15597;50.914;6.638;2023-11-19T00:11:58;2.35;;;0.85;;
28343;SDS011;15597;50.914;6.638;2023-11-19T00:14:25;1.75;;;0.50;;
28343;SDS011;15597;50.914;6.638;2023-11-19T00:16:51;4.50;;;0.70;;
28343;SDS011;15597;50.914;6.638;2023-11-19T00:19:18;2.28;;;0.60;;
28343;SDS011;15597;50.914;6.638;2023-11-19T00:21:44;1.73;;;0.70;;
28343;SDS011;15597;50.914;6.638;2023-11-19T00:24:11;1.60;;;0.57;;
28343;SDS011;15597;50.914;6.638;2023-11-19T00:26:38;1.73;;;0.60;;
28343;SDS011;15597;50.914;6.638;2023-11-19T00:29:07;1.15;;;0.52;;
28343;SDS011;15597;50.914;6.638;2023-11-19T00:31:32;1.88;;;0.60;;
28343;SDS011;15597;50.914;6.638;2023-11-19T00:33:58;0.63;;;0.35;;
28343;SDS011;15597;50.914;6.638;2023-11-19T00:36:24;0.70;;;0.30;;
28343;SDS011;15597;50.914;6.638;2023-11-19T00:38:50;1.60;;;0.60;;
28343;SDS011;15597;50.914;6.638;2023-11-19T00:41:18;0.30;;;0.20;;
28343;SDS011;15597;50.914;6.638;2023-11-19T00:43:44;1.08;;;0.43;;
28343;SDS011;15597;50.914;6.638;2023-11-19T00:46:10;1.67;;;0.40;;
28343;SDS011;15597;50.914;6.638;2023-11-19T00:48:39;1.00;;;0.50;;
28343;SDS011;15597;50.914;6.638;2023-11-19T00:51:05;0.40;;;0.20;;
28343;SDS011;15597;50.914;6.638;2023-11-19T00:53:31;1.15;;;0.45;;
28343;SDS011;15597;50.914;6.638;2023-11-19T00:56:00;0.90;;;0.30;;
28343;SDS011;15597;50.914;6.638;2023-11-19T00:58:25;1.55;;;0.50;;
28343;SDS011;15597;50.914;6.638;2023-11-19T01:00:51;1.00;;;0.50;;
28343;SDS011;15597;50.914;6.638;2023-11-19T01:03:17;1.33;;;0.50;;
28343;SDS011;15597;50.914;6.638;2023-11-19T01:05:42;1.27;;;0.50;;
28343;SDS011;15597;50.914;6.638;2023-11-19T01:08:09;1.73;;;0.32;;
28343;SDS011;15597;50.914;6.638;2023-11-19T01:10:36;1.30;;;0.47;;
28343;SDS011;15597;50.914;6.638;2023-11-19T01:13:02;1.50;;;0.60;;
28343;SDS011;15597;50.914;6.638;2023-11-19T01:15:33;0.82;;;0.40;;
28343;SDS011;15597;50.914;6.638;2023-11-19T01:17:59;1.63;;;0.50;;
28343;SDS011;15597;50.914;6.638;2023-11-19T01:20:27;1.17;;;0.38;;
28343;SDS011;15597;50.914;6.638;2023-11-19T01:22:54;0.38;;;0.30;;
28343;SDS011;15597;50.914;6.638;2023-11-19T01:25:19;2.38;;;0.63;;
28343;SDS011;15597;50.914;6.638;2023-11-19T01:27:45;1.85;;;0.68;;
28343;SDS011;15597;50.914;6.638;2023-11-19T01:30:10;2.00;;;0.63;;
28343;SDS011;15597;50.914;6.638;2023-11-19T01:32:38;2.13;;;0.57;;
28343;SDS011;15597;50.914;6.638;2023-11-19T01:35:04;2.80;;;0.70;;
28343;SDS011;15597;50.914;6.638;2023-11-19T01:37:30;2.28;;;0.60;;
28343;SDS011;15597;50.914;6.638;2023-11-19T01:39:57;4.03;;;0.63;;
28343;SDS011;15597;50.914;6.638;2023-11-19T01:42:23;1.80;;;0.70;;
28343;SDS011;15597;50.914;6.638;2023-11-19T01:44:59;4.43;;;0.80;;
28343;SDS011;15597;50.914;6.638;2023-11-19T01:47:26;3.13;;;0.82;;
28343;SDS011;15597;50.914;6.638;2023-11-19T01:49:54;1.77;;;0.60;;
28343;SDS011;15597;50.914;6.638;2023-11-19T01:52:22;6.43;;;1.02;;
28343;SDS011;15597;50.914;6.638;2023-11-19T01:54:48;3.92;;;0.85;;
28343;SDS011;15597;50.914;6.638;2023-11-19T01:57:15;4.88;;;0.80;;
28343;SDS011;15597;50.914;6.638;2023-11-19T01:59:41;2.13;;;0.80;;
28343;SDS011;15597;50.914;6.638;2023-11-19T02:02:07;2.47;;;0.63;;
28343;SDS011;15597;50.914;6.638;2023-11-19T02:04:32;3.95;;;0.60;;
28343;SDS011;15597;50.914;6.638;2023-11-19T02:07:00;2.90;;;0.70;;
28343;SDS011;15597;50.914;6.638;2023-11-19T02:09:26;1.08;;;0.50;;
28343;SDS011;15597;50.914;6.638;2023-11-19T02:11:52;6.20;;;0.90;;
28343;SDS011;15597;50.914;6.638;2023-11-19T02:14:21;3.70;;;0.90;;
28343;SDS011;15597;50.914;6.638;2023-11-19T02:16:52;1.63;;;0.60;;
28343;SDS011;15597;50.914;6.638;2023-11-19T02:19:21;2.72;;;0.70;;
28343;SDS011;15597;50.914;6.638;2023-11-19T02:21:46;5.22;;;1.15;;
28343;SDS011;15597;50.914;6.638;2023-11-19T02:24:12;4.25;;;0.93;;
28343;SDS011;15597;50.914;6.638;2023-11-19T02:26:51;5.40;;;1.00;;
28343;SDS011;15597;50.914;6.638;2023-11-19T02:29:24;2.38;;;0.80;;
28343;SDS011;15597;50.914;6.638;2023-11-19T02:31:50;3.97;;;0.77;;
28343;SDS011;15597;50.914;6.638;2023-11-19T02:34:15;2.78;;;0.73;;
28343;SDS011;15597;50.914;6.638;2023-11-19T02:36:41;4.63;;;0.90;;
28343;SDS011;15597;50.914;6.638;2023-11-19T02:39:07;5.88;;;1.33;;
28343;SDS011;15597;50.914;6.638;2023-11-19T02:41:36;5.78;;;0.88;;
28343;SDS011;15597;50.914;6.638;2023-11-19T02:44:04;3.72;;;1.00;;
28343;SDS011;15597;50.914;6.638;2023-11-19T02:46:32;3.90;;;0.93;;
28343;SDS011;15597;50.914;6.638;2023-11-19T02:48:58;5.28;;;1.05;;
28343;SDS011;15597;50.914;6.638;2023-11-19T02:51:23;4.05;;;0.98;;
28343;SDS011;15597;50.914;6.638;2023-11-19T02:53:49;4.60;;;0.90;;
28343;SDS011;15597;50.914;6.638;2023-11-19T02:56:15;3.72;;;0.90;;
28343;SDS011;15597;50.914;6.638;2023-11-19T02:58:45;8.23;;;1.50;;
28343;SDS011;15597;50.914;6.638;2023-11-19T03:01:12;4.50;;;1.13;;
28343;SDS011;15597;50.914;6.638;2023-11-19T03:03:48;5.15;;;1.00;;
28343;SDS011;15597;50.914;6.638;2023-11-19T03:06:19;4.65;;;1.08;;
28343;SDS011;15597;50.914;6.638;2023-11-19T03:08:45;6.10;;;1.20;;
28343;SDS011;15597;50.914;6.638;2023-11-19T03:11:10;8.32;;;1.38;;
28343;SDS011;15597;50.914;6.638;2023-11-19T03:13:36;4.85;;;1.00;;
28343;SDS011;15597;50.914;6.638;2023-11-19T03:16:01;5.32;;;0.95;;
28343;SDS011;15597;50.914;6.638;2023-11-19T03:18:26;6.40;;;1.10;;
28343;SDS011;15597;50.914;6.638;2023-11-19T03:20:53;5.50;;;0.90;;
28343;SDS011;15597;50.914;6.638;2023-11-19T03:23:19;8.15;;;1.40;;
28343;SDS011;15597;50.914;6.638;2023-11-19T03:25:44;7.63;;;1.20;;
28343;SDS011;15597;50.914;6.638;2023-11-19T03:28:10;5.15;;;1.10;;
28343;SDS011;15597;50.914;6.638;2023-11-19T03:30:36;4.90;;;1.00;;
28343;SDS011;15597;50.914;6.638;2023-11-19T03:33:03;7.35;;;1.13;;
28343;SDS011;15597;50.914;6.638;2023-11-19T03:35:29;6.57;;;1.20;;
28343;SDS011;15597;50.914;6.638;2023-11-19T03:37:56;5.20;;;1.30;;
28343;SDS011;15597;50.914;6.638;2023-11-19T03:40:23;4.28;;;0.98;;
28343;SDS011;15597;50.914;6.638;2023-11-19T03:42:50;6.60;;;1.23;;
28343;SDS011;15597;50.914;6.638;2023-11-19T03:45:15;3.85;;;0.75;;
28343;SDS011;15597;50.914;6.638;2023-11-19T03:47:41;5.38;;;1.70;;
28343;SDS011;15597;50.914;6.638;2023-11-19T03:50:07;9.85;;;1.50;;
28343;SDS011;15597;50.914;6.638;2023-11-19T03:52:34;7.40;;;1.25;;
28343;SDS011;15597;50.914;6.638;2023-11-19T03:55:00;4.78;;;0.93;;
28343;SDS011;15597;50.914;6.638;2023-11-19T03:57:27;7.63;;;1.77;;
28343;SDS011;15597;50.914;6.638;2023-11-19T03:59:53;6.00;;;1.52;;
28343;SDS011;15597;50.914;6.638;2023-11-19T04:02:20;5.97;;;1.25;;
28343;SDS011;15597;50.914;6.638;2023-11-19T04:04:46;9.75;;;1.50;;
28343;SDS011;15597;50.914;6.638;2023-11-19T04:07:12;4.35;;;1.00;;
28343;SDS011;15597;50.914;6.638;2023-11-19T04:09:37;6.00;;;1.08;;
28343;SDS011;15597;50.914;6.638;2023-11-19T04:12:03;8.57;;;1.42;;
28343;SDS011;15597;50.914;6.638;2023-11-19T04:14:29;3.20;;;0.70;;
28343;SDS011;15597;50.914;6.638;2023-11-19T04:16:54;3.40;;;1.02;;
28343;SDS011;15597;50.914;6.638;2023-11-19T04:19:20;8.07;;;1.30;;
28343;SDS011;15597;50.914;6.638;2023-11-19T04:21:46;4.82;;;1.13;;
28343;SDS011;15597;50.914;6.638;2023-11-19T04:24:11;11.38;;;1.85;;
28343;SDS011;15597;50.914;6.638;2023-11-19T04:26:40;10.57;;;2.15;;
28343;SDS011;15597;50.914;6.638;2023-11-19T04:29:13;10.05;;;1.77;;
28343;SDS011;15597;50.914;6.638;2023-11-19T04:31:40;7.75;;;1.48;;
28343;SDS011;15597;50.914;6.638;2023-11-19T04:34:07;9.30;;;1.48;;
28343;SDS011;15597;50.914;6.638;2023-11-19T04:36:33;9.27;;;1.35;;
28343;SDS011;15597;50.914;6.638;2023-11-19T04:38:59;6.85;;;1.50;;
28343;SDS011;15597;50.914;6.638;2023-11-19T04:41:26;7.50;;;1.05;;
28343;SDS011;15597;50.914;6.638;2023-11-19T04:43:53;9.30;;;1.42;;
28343;SDS011;15597;50.914;6.638;2023-11-19T04:46:19;8.85;;;1.65;;
28343;SDS011;15597;50.914;6.638;2023-11-19T04:48:45;5.85;;;1.20;;
28343;SDS011;15597;50.914;6.638;2023-11-19T04:51:11;8.95;;;1.85;;
28343;SDS011;15597;50.914;6.638;2023-11-19T04:53:37;8.35;;;1.40;;
28343;SDS011;15597;50.914;6.638;2023-11-19T04:56:09;10.05;;;1.60;;
28343;SDS011;15597;50.914;6.638;2023-11-19T04:58:35;6.18;;;1.52;;
28343;SDS011;15597;50.914;6.638;2023-11-19T05:01:03;6.78;;;1.38;;
28343;SDS011;15597;50.914;6.638;2023-11-19T05:03:32;5.40;;;1.00;;
28343;SDS011;15597;50.914;6.638;2023-11-19T05:05:58;7.72;;;1.20;;
28343;SDS011;15597;50.914;6.638;2023-11-19T05:08:24;5.82;;;1.38;;
28343;SDS011;15597;50.914;6.638;2023-11-19T05:10:50;7.72;;;1.20;;
28343;SDS011;15597;50.914;6.638;2023-11-19T05:13:15;5.68;;;0.90;;
28343;SDS011;15597;50.914;6.638;2023-11-19T05:15:42;6.38;;;1.23;;
28343;SDS011;15597;50.914;6.638;2023-11-19T05:18:07;10.25;;;1.83;;
28343;SDS011;15597;50.914;6.638;2023-11-19T05:20:34;7.68;;;1.52;;
28343;SDS011;15597;50.914;6.638;2023-11-19T05:22:59;5.40;;;1.30;;
28343;SDS011;15597;50.914;6.638;2023-11-19T05:25:25;10.63;;;1.58;;
28343;SDS011;15597;50.914;6.638;2023-11-19T05:27:52;13.60;;;1.95;;
28343;SDS011;15597;50.914;6.638;2023-11-19T05:30:18;8.63;;;1.17;;
28343;SDS011;15597;50.914;6.638;2023-11-19T05:32:44;8.48;;;1.45;;
28343;SDS011;15597;50.914;6.638;2023-11-19T05:35:10;9.48;;;1.23;;
28343;SDS011;15597;50.914;6.638;2023-11-19T05:37:36;4.82;;;1.10;;
28343;SDS011;15597;50.914;6.638;2023-11-19T05:40:02;9.73;;;1.58;;
28343;SDS011;15597;50.914;6.638;2023-11-19T05:42:29;6.25;;;1.23;;
28343;SDS011;15597;50.914;6.638;2023-11-19T05:44:55;10.95;;;1.55;;
28343;SDS011;15597;50.914;6.638;2023-11-19T05:47:21;8.13;;;1.55;;
28343;SDS011;15597;50.914;6.638;2023-11-19T05:49:46;4.63;;;1.10;;
28343;SDS011;15597;50.914;6.638;2023-11-19T05:52:12;20.33;;;1.92;;
28343;SDS011;15597;50.914;6.638;2023-11-19T05:54:38;9.05;;;1.40;;
28343;SDS011;15597;50.914;6.638;2023-11-19T05:57:04;9.95;;;1.75;;
28343;SDS011;15597;50.914;6.638;2023-11-19T05:59:30;11.90;;;2.03;;
28343;SDS011;15597;50.914;6.638;2023-11-19T06:01:57;8.20;;;1.42;;
28343;SDS011;15597;50.914;6.638;2023-11-19T06:04:23;8.35;;;1.48;;
28343;SDS011;15597;50.914;6.638;2023-11-19T06:06:48;11.75;;;1.83;;
28343;SDS011;15597;50.914;6.638;2023-11-19T06:09:14;10.35;;;1.58;;
28343;SDS011;15597;50.914;6.638;2023-11-19T06:11:39;10.05;;;1.92;;
28343;SDS011;15597;50.914;6.638;2023-11-19T06:14:06;8.45;;;1.83;;
28343;SDS011;15597;50.914;6.638;2023-11-19T06:16:31;7.72;;;1.33;;
28343;SDS011;15597;50.914;6.638;2023-11-19T06:18:57;15.88;;;1.90;;
28343;SDS011;15597;50.914;6.638;2023-11-19T06:24:13;5.38;;;1.40;;
28343;SDS011;15597;50.914;6.638;2023-11-19T06:26:39;12.98;;;2.15;;
28343;SDS011;15597;50.914;6.638;2023-11-19T06:29:04;7.20;;;1.30;;
28343;SDS011;15597;50.914;6.638;2023-11-19T06:31:31;6.05;;;1.50;;
28343;SDS011;15597;50.914;6.638;2023-11-19T06:33:56;9.57;;;1.63;;
28343;SDS011;15597;50.914;6.638;2023-11-19T06:36:22;9.20;;;1.60;;
28343;SDS011;15597;50.914;6.638;2023-11-19T06:38:48;10.82;;;1.60;;
28343;SDS011;15597;50.914;6.638;2023-11-19T06:41:13;6.43;;;1.48;;
28343;SDS011;15597;50.914;6.638;2023-11-19T06:43:39;10.20;;;1.70;;
28343;SDS011;15597;50.914;6.638;2023-11-19T06:46:04;16.27;;;2.28;;
28343;SDS011;15597;50.914;6.638;2023-11-19T06:48:31;10.48;;;2.03;;
28343;SDS011;15597;50.914;6.638;2023-11-19T06:50:57;8.30;;;1.85;;
28343;SDS011;15597;50.914;6.638;2023-11-19T06:53:24;5.97;;;1.52;;
28343;SDS011;15597;50.914;6.638;2023-11-19T06:55:49;9.82;;;2.10;;
28343;SDS011;15597;50.914;6.638;2023-11-19T06:58:15;12.30;;;2.25;;
28343;SDS011;15597;50.914;6.638;2023-11-19T07:00:40;11.45;;;1.92;;
28343;SDS011;15597;50.914;6.638;2023-11-19T07:03:06;12.85;;;2.22;;
28343;SDS011;15597;50.914;6.638;2023-11-19T07:05:35;12.35;;;2.20;;
28343;SDS011;15597;50.914;6.638;2023-11-19T07:08:03;13.20;;;2.00;;
28343;SDS011;15597;50.914;6.638;2023-11-19T07:10:32;11.38;;;3.00;;
28343;SDS011;15597;50.914;6.638;2023-11-19T07:12:57;11.63;;;1.80;;
28343;SDS011;15597;50.914;6.638;2023-11-19T07:15:23;7.40;;;1.73;;
28343;SDS011;15597;50.914;6.638;2023-11-19T07:17:48;7.82;;;1.73;;
28343;SDS011;15597;50.914;6.638;2023-11-19T07:20:14;10.13;;;1.67;;
28343;SDS011;15597;50.914;6.638;2023-11-19T07:22:43;11.02;;;1.85;;
28343;SDS011;15597;50.914;6.638;2023-11-19T07:25:12;6.57;;;1.27;;
28343;SDS011;15597;50.914;6.638;2023-11-19T07:27:38;9.70;;;1.58;;
28343;SDS011;15597;50.914;6.638;2023-11-19T07:30:05;9.15;;;1.65;;
28343;SDS011;15597;50.914;6.638;2023-11-19T07:32:32;10.98;;;1.80;;
28343;SDS011;15597;50.914;6.638;2023-11-19T07:34:58;11.63;;;1.88;;
28343;SDS011;15597;50.914;6.638;2023-11-19T07:37:24;11.77;;;1.60;;
28343;SDS011;15597;50.914;6.638;2023-11-19T07:39:50;12.80;;;2.15;;
28343;SDS011;15597;50.914;6.638;2023-11-19T07:42:16;6.45;;;1.45;;
28343;SDS011;15597;50.914;6.638;2023-11-19T07:44:42;8.35;;;1.30;;
28343;SDS011;15597;50.914;6.638;2023-11-19T07:47:11;7.22;;;1.40;;
28343;SDS011;15597;50.914;6.638;2023-11-19T07:49:37;20.98;;;4.05;;
28343;SDS011;15597;50.914;6.638;2023-11-19T07:52:03;10.18;;;2.20;;
28343;SDS011;15597;50.914;6.638;2023-11-19T07:54:29;13.23;;;2.03;;
28343;SDS011;15597;50.914;6.638;2023-11-19T07:56:55;16.50;;;2.50;;
28343;SDS011;15597;50.914;6.638;2023-11-19T07:59:20;14.48;;;2.13;;
28343;SDS011;15597;50.914;6.638;2023-11-19T08:01:46;13.40;;;2.80;;
28343;SDS011;15597;50.914;6.638;2023-11-19T08:04:13;13.82;;;3.75;;
28343;SDS011;15597;50.914;6.638;2023-11-19T08:06:39;12.30;;;3.00;;
28343;SDS011;15597;50.914;6.638;2023-11-19T08:09:05;14.23;;;2.78;;
28343;SDS011;15597;50.914;6.638;2023-11-19T08:11:32;14.23;;;2.15;;
28343;SDS011;15597;50.914;6.638;2023-11-19T08:13:58;15.60;;;2.45;;
28343;SDS011;15597;50.914;6.638;2023-11-19T08:16:24;13.65;;;2.15;;
28343;SDS011;15597;50.914;6.638;2023-11-19T08:18:50;12.65;;;2.78;;
28343;SDS011;15597;50.914;6.638;2023-11-19T08:21:15;11.90;;;1.90;;
28343;SDS011;15597;50.914;6.638;2023-11-19T08:23:41;9.38;;;1.55;;
28343;SDS011;15597;50.914;6.638;2023-11-19T08:26:06;12.43;;;1.95;;
28343;SDS011;15597;50.914;6.638;2023-11-19T08:28:32;19.48;;;2.90;;
28343;SDS011;15597;50.914;6.638;2023-11-19T08:30:59;9.70;;;2.72;;
28343;SDS011;15597;50.914;6.638;2023-11-19T08:33:26;12.10;;;1.80;;
28343;SDS011;15597;50.914;6.638;2023-11-19T08:35:52;10.93;;;1.92;;
28343;SDS011;15597;50.914;6.638;2023-11-19T08:38:17;10.20;;;1.85;;
28343;SDS011;15597;50.914;6.638;2023-11-19T08:40:43;16.30;;;2.38;;
28343;SDS011;15597;50.914;6.638;2023-11-19T08:43:08;10.70;;;1.85;;
28343;SDS011;15597;50.914;6.638;2023-11-19T08:45:34;11.60;;;2.10;;
28343;SDS011;15597;50.914;6.638;2023-11-19T08:47:59;14.52;;;2.13;;
28343;SDS011;15597;50.914;6.638;2023-11-19T08:50:25;12.55;;;2.60;;
28343;SDS011;15597;50.914;6.638;2023-11-19T08:52:51;11.40;;;2.00;;
28343;SDS011;15597;50.914;6.638;2023-11-19T08:55:16;16.27;;;2.25;;
28343;SDS011;15597;50.914;6.638;2023-11-19T08:57:42;18.70;;;2.40;;
28343;SDS011;15597;50.914;6.638;2023-11-19T09:00:07;13.07;;;2.20;;
28343;SDS011;15597;50.914;6.638;2023-11-19T09:02:36;9.68;;;1.88;;
28343;SDS011;15597;50.914;6.638;2023-11-19T09:05:02;8.73;;;1.83;;
28343;SDS011;15597;50.914;6.638;2023-11-19T09:07:28;10.52;;;1.92;;
28343;SDS011;15597;50.914;6.638;2023-11-19T09:09:54;10.60;;;1.85;;
28343;SDS011;15597;50.914;6.638;2023-11-19T09:12:20;8.73;;;1.73;;
28343;SDS011;15597;50.914;6.638;2023-11-19T09:14:45;7.32;;;1.52;;
28343;SDS011;15597;50.914;6.638;2023-11-19T09:17:11;14.73;;;2.20;;
28343;SDS011;15597;50.914;6.638;2023-11-19T09:19:37;10.82;;;2.00;;
28343;SDS011;15597;50.914;6.638;2023-11-19T09:22:02;10.38;;;2.47;;
28343;SDS011;15597;50.914;6.638;2023-11-19T09:24:29;14.23;;;2.55;;
28343;SDS011;15597;50.914;6.638;2023-11-19T09:26:54;10.93;;;2.00;;
28343;SDS011;15597;50.914;6.638;2023-11-19T09:29:21;15.38;;;2.40;;
28343;SDS011;15597;50.914;6.638;2023-11-19T09:31:47;13.05;;;2.30;;
28343;SDS011;15597;50.914;6.638;2023-11-19T09:34:12;14.10;;;2.40;;
28343;SDS011;15597;50.914;6.638;2023-11-19T09:36:38;12.00;;;2.30;;
28343;SDS011;15597;50.914;6.638;2023-11-19T09:39:08;15.95;;;2.58;;
28343;SDS011;15597;50.914;6.638;2023-11-19T09:41:34;9.85;;;1.80;;
28343;SDS011;15597;50.914;6.638;2023-11-19T09:44:00;13.05;;;2.42;;
28343;SDS011;15597;50.914;6.638;2023-11-19T09:46:25;13.10;;;2.03;;
28343;SDS011;15597;50.914;6.638;2023-11-19T09:48:52;16.90;;;3.65;;
28343;SDS011;15597;50.914;6.638;2023-11-19T09:51:21;10.48;;;2.70;;
28343;SDS011;15597;50.914;6.638;2023-11-19T09:53:48;9.93;;;2.35;;
28343;SDS011;15597;50.914;6.638;2023-11-19T09:56:14;16.60;;;2.38;;
28343;SDS011;15597;50.914;6.638;2023-11-19T09:58:42;13.32;;;2.28;;
28343;SDS011;15597;50.914;6.638;2023-11-19T10:01:07;11.55;;;2.03;;
28343;SDS011;15597;50.914;6.638;2023-11-19T10:03:36;15.60;;;2.00;;
28343;SDS011;15597;50.914;6.638;2023-11-19T10:06:08;11.82;;;2.42;;
28343;SDS011;15597;50.914;6.638;2023-11-19T10:08:37;8.88;;;2.20;;
28343;SDS011;15597;50.914;6.638;2023-11-19T10:11:07;15.68;;;2.15;;
28343;SDS011;15597;50.914;6.638;2023-11-19T10:13:36;7.28;;;2.22;;
28343;SDS011;15597;50.914;6.638;2023-11-19T10:16:12;12.35;;;1.98;;
28343;SDS011;15597;50.914;6.638;2023-11-19T10:18:42;11.73;;;2.25;;
28343;SDS011;15597;50.914;6.638;2023-11-19T10:21:11;11.02;;;2.30;;
28343;SDS011;15597;50.914;6.638;2023-11-19T10:23:51;14.38;;;2.47;;
28343;SDS011;15597;50.914;6.638;2023-11-19T10:26:21;11.18;;;2.50;;
28343;SDS011;15597;50.914;6.638;2023-11-19T10:28:47;13.57;;;2.47;;
28343;SDS011;15597;50.914;6.638;2023-11-19T10:31:17;12.38;;;2.25;;
28343;SDS011;15597;50.914;6.638;2023-11-19T10:33:44;12.32;;;2.10;;
28343;SDS011;15597;50.914;6.638;2023-11-19T10:36:10;8.30;;;1.83;;
28343;SDS011;15597;50.914;6.638;2023-11-19T10:38:37;8.25;;;1.63;;
28343;SDS011;15597;50.914;6.638;2023-11-19T10:41:04;9.73;;;2.40;;
28343;SDS011;15597;50.914;6.638;2023-11-19T10:43:30;14.23;;;2.38;;
28343;SDS011;15597;50.914;6.638;2023-11-19T10:46:12;13.70;;;2.78;;
28343;SDS011;15597;50.914;6.638;2023-11-19T10:48:38;9.10;;;1.83;;
28343;SDS011;15597;50.914;6.638;2023-11-19T10:51:05;7.82;;;1.65;;
28343;SDS011;15597;50.914;6.638;2023-11-19T10:53:36;21.40;;;3.85;;
28343;SDS011;15597;50.914;6.638;2023-11-19T10:56:10;9.65;;;2.60;;
28343;SDS011;15597;50.914;6.638;2023-11-19T10:58:36;12.32;;;2.38;;
28343;SDS011;15597;50.914;6.638;2023-11-19T11:01:13;12.88;;;2.40;;
28343;SDS011;15597;50.914;6.638;2023-11-19T11:03:41;9.75;;;2.25;;
28343;SDS011;15597;50.914;6.638;2023-11-19T11:06:08;12.32;;;2.30;;
28343;SDS011;15597;50.914;6.638;2023-11-19T11:08:36;13.45;;;2.47;;
28343;SDS011;15597;50.914;6.638;2023-11-19T11:11:03;12.15;;;1.92;;
28343;SDS011;15597;50.914;6.638;2023-11-19T11:13:31;10.43;;;2.22;;
28343;SDS011;15597;50.914;6.638;2023-11-19T11:15:59;15.20;;;2.42;;
28343;SDS011;15597;50.914;6.638;2023-11-19T11:18:25;12.10;;;1.83;;
28343;SDS011;15597;50.914;6.638;2023-11-19T11:20:59;14.25;;;2.33;;
28343;SDS011;15597;50.914;6.638;2023-11-19T11:26:43;11.52;;;1.85;;
28343;SDS011;15597;50.914;6.638;2023-11-19T11:32:35;11.77;;;2.20;;
28343;SDS011;15597;50.914;6.638;2023-11-19T11:35:19;10.02;;;1.80;;
28343;SDS011;15597;50.914;6.638;2023-11-19T11:38:04;8.98;;;2.08;;
28343;SDS011;15597;50.914;6.638;2023-11-19T11:40:32;15.60;;;2.63;;
28343;SDS011;15597;50.914;6.638;2023-11-19T11:42:57;12.35;;;2.15;;
28343;SDS011;15597;50.914;6.638;2023-11-19T11:45:36;9.68;;;2.20;;
28343;SDS011;15597;50.914;6.638;2023-11-19T11:48:04;12.32;;;2.20;;
28343;SDS011;15597;50.914;6.638;2023-11-19T11:50:31;11.60;;;2.30;;
28343;SDS011;15597;50.914;6.638;2023-11-19T11:58:20;12.93;;;2.10;;
28343;SDS011;15597;50.914;6.638;2023-11-19T12:00:47;11.80;;;2.65;;
28343;SDS011;15597;50.914;6.638;2023-11-19T12:03:13;13.65;;;2.35;;
28343;SDS011;15597;50.914;6.638;2023-11-19T12:05:43;10.73;;;2.17;;
28343;SDS011;15597;50.914;6.638;2023-11-19T12:08:10;11.77;;;2.20;;
28343;SDS011;15597;50.914;6.638;2023-11-19T12:10:47;11.25;;;2.22;;
28343;SDS011;15597;50.914;6.638;2023-11-19T12:13:17;10.43;;;1.75;;
28343;SDS011;15597;50.914;6.638;2023-11-19T12:18:28;11.85;;;2.17;;
28343;SDS011;15597;50.914;6.638;2023-11-19T12:20:55;8.32;;;1.85;;
28343;SDS011;15597;50.914;6.638;2023-11-19T12:23:21;10.98;;;2.10;;
28343;SDS011;15597;50.914;6.638;2023-11-19T12:25:47;9.85;;;2.15;;
28343;SDS011;15597;50.914;6.638;2023-11-19T12:28:13;9.15;;;1.70;;
28343;SDS011;15597;50.914;6.638;2023-11-19T12:30:42;10.02;;;1.90;;
28343;SDS011;15597;50.914;6.638;2023-11-19T12:33:09;10.90;;;1.90;;
28343;SDS011;15597;50.914;6.638;2023-11-19T12:35:42;10.23;;;1.90;;
28343;SDS011;15597;50.914;6.638;2023-11-19T12:38:25;7.85;;;1.52;;
28343;SDS011;15597;50.914;6.638;2023-11-19T12:41:06;7.32;;;1.27;;
28343;SDS011;15597;50.914;6.638;2023-11-19T12:43:33;9.73;;;2.15;;
28343;SDS011;15597;50.914;6.638;2023-11-19T12:46:18;11.05;;;2.03;;
28343;SDS011;15597;50.914;6.638;2023-11-19T12:48:46;11.20;;;2.30;;
28343;SDS011;15597;50.914;6.638;2023-11-19T12:51:12;10.43;;;2.20;;
28343;SDS011;15597;50.914;6.638;2023-11-19T12:53:50;9.25;;;1.88;;
28343;SDS011;15597;50.914;6.638;2023-11-19T12:56:20;10.85;;;1.70;;
28343;SDS011;15597;50.914;6.638;2023-11-19T12:58:46;8.18;;;1.70;;
28343;SDS011;15597;50.914;6.638;2023-11-19T13:01:15;7.30;;;1.80;;
28343;SDS011;15597;50.914;6.638;2023-11-19T13:03:42;9.65;;;1.60;;
28343;SDS011;15597;50.914;6.638;2023-11-19T13:06:09;8.15;;;1.77;;
28343;SDS011;15597;50.914;6.638;2023-11-19T13:08:37;7.50;;;1.48;;
28343;SDS011;15597;50.914;6.638;2023-11-19T13:11:03;10.43;;;2.50;;
28343;SDS011;15597;50.914;6.638;2023-11-19T13:13:29;12.52;;;2.40;;
28343;SDS011;15597;50.914;6.638;2023-11-19T13:16:01;7.47;;;2.20;;
28343;SDS011;15597;50.914;6.638;2023-11-19T13:18:31;9.35;;;1.85;;
28343;SDS011;15597;50.914;6.638;2023-11-19T13:20:56;12.20;;;2.17;;
28343;SDS011;15597;50.914;6.638;2023-11-19T13:23:22;10.60;;;1.85;;
28343;SDS011;15597;50.914;6.638;2023-11-19T13:25:48;8.00;;;1.83;;
28343;SDS011;15597;50.914;6.638;2023-11-19T13:28:14;7.90;;;1.55;;
28343;SDS011;15597;50.914;6.638;2023-11-19T13:30:39;10.40;;;1.90;;
28343;SDS011;15597;50.914;6.638;2023-11-19T13:33:05;8.55;;;1.73;;
28343;SDS011;15597;50.914;6.638;2023-11-19T13:35:31;8.18;;;1.90;;
28343;SDS011;15597;50.914;6.638;2023-11-19T13:37:56;10.73;;;2.15;;
28343;SDS011;15597;50.914;6.638;2023-11-19T13:40:22;11.98;;;2.47;;
28343;SDS011;15597;50.914;6.638;2023-11-19T13:42:49;11.18;;;1.77;;
28343;SDS011;15597;50.914;6.638;2023-11-19T13:45:15;14.82;;;2.15;;
28343;SDS011;15597;50.914;6.638;2023-11-19T13:47:42;9.68;;;2.55;;
28343;SDS011;15597;50.914;6.638;2023-11-19T13:50:12;11.95;;;1.88;;
28343;SDS011;15597;50.914;6.638;2023-11-19T13:55:10;7.88;;;1.55;;
28343;SDS011;15597;50.914;6.638;2023-11-19T13:57:37;13.65;;;2.20;;
28343;SDS011;15597;50.914;6.638;2023-11-19T14:00:07;11.45;;;2.22;;
28343;SDS011;15597;50.914;6.638;2023-11-19T14:02:41;7.88;;;1.88;;
28343;SDS011;15597;50.914;6.638;2023-11-19T14:05:08;11.60;;;2.05;;
28343;SDS011;15597;50.914;6.638;2023-11-19T14:07:36;10.75;;;2.03;;
28343;SDS011;15597;50.914;6.638;2023-11-19T14:10:02;9.95;;;1.85;;
28343;SDS011;15597;50.914;6.638;2023-11-19T14:12:28;7.60;;;1.98;;
28343;SDS011;15597;50.914;6.638;2023-11-19T14:14:54;10.77;;;2.13;;
28343;SDS011;15597;50.914;6.638;2023-11-19T14:17:20;8.05;;;1.83;;
28343;SDS011;15597;50.914;6.638;2023-11-19T14:19:46;8.32;;;1.80;;
28343;SDS011;15597;50.914;6.638;2023-11-19T14:22:11;7.75;;;1.95;;
28343;SDS011;15597;50.914;6.638;2023-11-19T14:24:37;6.00;;;1.70;;
28343;SDS011;15597;50.914;6.638;2023-11-19T14:27:03;6.85;;;1.73;;
28343;SDS011;15597;50.914;6.638;2023-11-19T14:29:28;12.70;;;2.40;;
28343;SDS011;15597;50.914;6.638;2023-11-19T14:31:55;6.10;;;1.52;;
28343;SDS011;15597;50.914;6.638;2023-11-19T14:34:21;9.20;;;1.77;;
28343;SDS011;15597;50.914;6.638;2023-11-19T14:36:47;11.15;;;1.63;;
28343;SDS011;15597;50.914;6.638;2023-11-19T14:39:13;9.85;;;2.03;;
28343;SDS011;15597;50.914;6.638;2023-11-19T14:41:39;8.82;;;1.42;;
28343;SDS011;15597;50.914;6.638;2023-11-19T14:44:04;8.18;;;1.70;;
28343;SDS011;15597;50.914;6.638;2023-11-19T14:46:30;8.25;;;1.88;;
28343;SDS011;15597;50.914;6.638;2023-11-19T14:48:56;9.77;;;1.63;;
28343;SDS011;15597;50.914;6.638;2023-11-19T14:51:22;7.13;;;1.92;;
28343;SDS011;15597;50.914;6.638;2023-11-19T14:53:47;9.35;;;1.90;;
28343;SDS011;15597;50.914;6.638;2023-11-19T14:56:13;10.07;;;1.95;;
28343;SDS011;15597;50.914;6.638;2023-11-19T14:58:39;9.48;;;1.90;;
28343;SDS011;15597;50.914;6.638;2023-11-19T15:01:05;11.95;;;1.98;;
28343;SDS011;15597;50.914;6.638;2023-11-19T15:03:31;8.40;;;1.80;;